sensor_id;sensor_type;location;lat;lon;timestamp;P1;durP1;ratioP1;P2;durP2;ratioP2
25567;SDS011;13455;51.480;7.594;2023-02-28T00:01:06;7.93;;;3.72;;
25567;SDS011;13455;51.480;7.594;2023-02-28T00:03:32;7.13;;;3.67;;
25567;SDS011;13455;51.480;7.594;2023-02-28T00:06:00;10.27;;;3.90;;
25567;SDS011;13455;51.480;7.594;2023-02-28T00:08:26;7.87;;;3.77;;
25567;SDS011;13455;51.480;7.594;2023-02-28T00:10:52;10.25;;;4.18;;
25567;SDS011;13455;51.480;7.594;2023-02-28T00:13:18;7.80;;;3.55;;
25567;SDS011;13455;51.480;7.594;2023-02-28T00:15:44;7.38;;;3.80;;
25567;SDS011;13455;51.480;7.594;2023-02-28T00:18:10;8.07;;;3.70;;
25567;SDS011;13455;51.480;7.594;2023-02-28T00:20:36;8.10;;;3.73;;
25567;SDS011;13455;51.480;7.594;2023-02-28T00:23:02;8.75;;;4.07;;
25567;SDS011;13455;51.480;7.594;2023-02-28T00:25:28;8.50;;;3.80;;
25567;SDS011;13455;51.480;7.594;2023-02-28T00:27:54;9.25;;;4.07;;
25567;SDS011;13455;51.480;7.594;2023-02-28T00:30:21;8.05;;;3.63;;
25567;SDS011;13455;51.480;7.594;2023-02-28T00:32:47;7.72;;;3.58;;
25567;SDS011;13455;51.480;7.594;2023-02-28T00:35:13;7.25;;;3.70;;
25567;SDS011;13455;51.480;7.594;2023-02-28T00:37:39;6.18;;;3.65;;
25567;SDS011;13455;51.480;7.594;2023-02-28T00:40:06;7.80;;;3.70;;
25567;SDS011;13455;51.480;7.594;2023-02-28T00:42:35;7.57;;;3.40;;
25567;SDS011;13455;51.480;7.594;2023-02-28T00:45:02;7.25;;;3.30;;
25567;SDS011;13455;51.480;7.594;2023-02-28T00:47:31;8.30;;;3.40;;
25567;SDS011;13455;51.480;7.594;2023-02-28T00:49:57;7.18;;;3.50;;
25567;SDS011;13455;51.480;7.594;2023-02-28T00:52:23;7.55;;;3.58;;
25567;SDS011;13455;51.480;7.594;2023-02-28T00:54:49;5.97;;;3.30;;
25567;SDS011;13455;51.480;7.594;2023-02-28T00:57:15;7.88;;;3.30;;
25567;SDS011;13455;51.480;7.594;2023-02-28T00:59:41;7.43;;;3.50;;
25567;SDS011;13455;51.480;7.594;2023-02-28T01:02:07;6.55;;;3.10;;
25567;SDS011;13455;51.480;7.594;2023-02-28T01:04:33;6.10;;;3.10;;
25567;SDS011;13455;51.480;7.594;2023-02-28T01:06:59;7.28;;;3.40;;
25567;SDS011;13455;51.480;7.594;2023-02-28T01:09:25;5.05;;;3.17;;
25567;SDS011;13455;51.480;7.594;2023-02-28T01:11:51;5.88;;;2.85;;
25567;SDS011;13455;51.480;7.594;2023-02-28T01:14:17;7.35;;;2.78;;
25567;SDS011;13455;51.480;7.594;2023-02-28T01:16:44;5.30;;;2.60;;
25567;SDS011;13455;51.480;7.594;2023-02-28T01:19:10;4.57;;;2.35;;
25567;SDS011;13455;51.480;7.594;2023-02-28T01:21:36;5.22;;;2.58;;
25567;SDS011;13455;51.480;7.594;2023-02-28T01:24:02;4.70;;;2.63;;
25567;SDS011;13455;51.480;7.594;2023-02-28T01:26:28;5.55;;;2.67;;
25567;SDS011;13455;51.480;7.594;2023-02-28T01:28:54;5.15;;;2.60;;
25567;SDS011;13455;51.480;7.594;2023-02-28T01:31:21;5.28;;;2.20;;
25567;SDS011;13455;51.480;7.594;2023-02-28T01:33:47;4.50;;;2.03;;
25567;SDS011;13455;51.480;7.594;2023-02-28T01:36:14;4.05;;;1.90;;
25567;SDS011;13455;51.480;7.594;2023-02-28T01:38:40;5.07;;;2.00;;
25567;SDS011;13455;51.480;7.594;2023-02-28T01:41:07;4.53;;;2.30;;
25567;SDS011;13455;51.480;7.594;2023-02-28T01:46:08;5.20;;;2.20;;
25567;SDS011;13455;51.480;7.594;2023-02-28T01:48:35;5.23;;;2.20;;
25567;SDS011;13455;51.480;7.594;2023-02-28T01:51:04;4.63;;;2.20;;
25567;SDS011;13455;51.480;7.594;2023-02-28T01:53:33;5.97;;;2.40;;
25567;SDS011;13455;51.480;7.594;2023-02-28T01:56:00;5.00;;;2.40;;
25567;SDS011;13455;51.480;7.594;2023-02-28T01:58:28;6.38;;;2.50;;
25567;SDS011;13455;51.480;7.594;2023-02-28T02:00:54;6.72;;;2.90;;
25567;SDS011;13455;51.480;7.594;2023-02-28T02:03:20;4.75;;;2.83;;
25567;SDS011;13455;51.480;7.594;2023-02-28T02:05:47;7.05;;;3.25;;
25567;SDS011;13455;51.480;7.594;2023-02-28T02:08:15;8.68;;;3.55;;
25567;SDS011;13455;51.480;7.594;2023-02-28T02:10:42;7.97;;;3.53;;
25567;SDS011;13455;51.480;7.594;2023-02-28T02:15:40;8.90;;;3.27;;
25567;SDS011;13455;51.480;7.594;2023-02-28T02:31:13;7.20;;;3.50;;
25567;SDS011;13455;51.480;7.594;2023-02-28T02:38:50;6.13;;;3.20;;
25567;SDS011;13455;51.480;7.594;2023-02-28T02:44:04;7.45;;;3.63;;
25567;SDS011;13455;51.480;7.594;2023-02-28T02:46:33;8.38;;;3.40;;
25567;SDS011;13455;51.480;7.594;2023-02-28T02:49:02;7.50;;;3.28;;
25567;SDS011;13455;51.480;7.594;2023-02-28T02:51:30;7.75;;;3.42;;
25567;SDS011;13455;51.480;7.594;2023-02-28T02:53:59;6.10;;;3.28;;
25567;SDS011;13455;51.480;7.594;2023-02-28T02:56:28;7.53;;;3.37;;
25567;SDS011;13455;51.480;7.594;2023-02-28T02:58:57;5.82;;;3.15;;
25567;SDS011;13455;51.480;7.594;2023-02-28T03:01:25;5.70;;;2.65;;
25567;SDS011;13455;51.480;7.594;2023-02-28T03:03:59;5.30;;;3.00;;
25567;SDS011;13455;51.480;7.594;2023-02-28T03:06:26;6.57;;;2.90;;
25567;SDS011;13455;51.480;7.594;2023-02-28T03:08:52;7.68;;;2.80;;
25567;SDS011;13455;51.480;7.594;2023-02-28T03:11:18;5.30;;;2.78;;
25567;SDS011;13455;51.480;7.594;2023-02-28T03:13:58;5.97;;;2.97;;
25567;SDS011;13455;51.480;7.594;2023-02-28T03:26:29;4.53;;;2.28;;
25567;SDS011;13455;51.480;7.594;2023-02-28T03:34:34;4.47;;;2.33;;
25567;SDS011;13455;51.480;7.594;2023-02-28T03:37:04;3.55;;;2.20;;
25567;SDS011;13455;51.480;7.594;2023-02-28T03:39:39;4.18;;;2.38;;
25567;SDS011;13455;51.480;7.594;2023-02-28T03:42:08;5.30;;;2.33;;
25567;SDS011;13455;51.480;7.594;2023-02-28T03:44:39;5.78;;;2.47;;
25567;SDS011;13455;51.480;7.594;2023-02-28T03:47:11;3.95;;;2.17;;
25567;SDS011;13455;51.480;7.594;2023-02-28T03:49:40;4.85;;;2.30;;
25567;SDS011;13455;51.480;7.594;2023-02-28T03:52:12;3.63;;;2.15;;
25567;SDS011;13455;51.480;7.594;2023-02-28T03:54:42;4.43;;;2.33;;
25567;SDS011;13455;51.480;7.594;2023-02-28T03:59:48;4.15;;;2.30;;
25567;SDS011;13455;51.480;7.594;2023-02-28T04:02:15;5.40;;;2.30;;
25567;SDS011;13455;51.480;7.594;2023-02-28T04:04:41;4.53;;;2.15;;
25567;SDS011;13455;51.480;7.594;2023-02-28T04:07:13;5.60;;;2.20;;
25567;SDS011;13455;51.480;7.594;2023-02-28T04:09:40;4.80;;;2.50;;
25567;SDS011;13455;51.480;7.594;2023-02-28T04:12:06;5.43;;;2.63;;
25567;SDS011;13455;51.480;7.594;2023-02-28T04:14:32;5.32;;;2.20;;
25567;SDS011;13455;51.480;7.594;2023-02-28T04:16:58;3.97;;;2.10;;
25567;SDS011;13455;51.480;7.594;2023-02-28T04:19:24;4.82;;;2.20;;
25567;SDS011;13455;51.480;7.594;2023-02-28T04:21:51;3.80;;;2.10;;
25567;SDS011;13455;51.480;7.594;2023-02-28T04:24:21;3.30;;;2.10;;
25567;SDS011;13455;51.480;7.594;2023-02-28T04:26:49;4.72;;;2.13;;
25567;SDS011;13455;51.480;7.594;2023-02-28T04:29:20;5.93;;;2.30;;
25567;SDS011;13455;51.480;7.594;2023-02-28T04:31:46;4.93;;;2.10;;
25567;SDS011;13455;51.480;7.594;2023-02-28T04:34:12;4.25;;;2.00;;
25567;SDS011;13455;51.480;7.594;2023-02-28T04:36:38;4.57;;;2.22;;
25567;SDS011;13455;51.480;7.594;2023-02-28T04:39:04;3.17;;;1.85;;
25567;SDS011;13455;51.480;7.594;2023-02-28T04:41:30;3.53;;;1.90;;
25567;SDS011;13455;51.480;7.594;2023-02-28T04:43:56;3.80;;;1.80;;
25567;SDS011;13455;51.480;7.594;2023-02-28T04:46:22;4.77;;;2.20;;
25567;SDS011;13455;51.480;7.594;2023-02-28T04:48:49;3.50;;;1.90;;
25567;SDS011;13455;51.480;7.594;2023-02-28T04:51:16;3.33;;;1.90;;
25567;SDS011;13455;51.480;7.594;2023-02-28T04:53:42;4.35;;;1.73;;
25567;SDS011;13455;51.480;7.594;2023-02-28T04:56:10;5.55;;;1.95;;
25567;SDS011;13455;51.480;7.594;2023-02-28T04:58:37;3.40;;;2.00;;
25567;SDS011;13455;51.480;7.594;2023-02-28T05:01:04;3.57;;;1.97;;
25567;SDS011;13455;51.480;7.594;2023-02-28T05:03:38;3.67;;;2.10;;
25567;SDS011;13455;51.480;7.594;2023-02-28T05:06:05;4.22;;;2.00;;
25567;SDS011;13455;51.480;7.594;2023-02-28T05:08:32;3.72;;;2.00;;
25567;SDS011;13455;51.480;7.594;2023-02-28T05:10:58;3.67;;;2.17;;
25567;SDS011;13455;51.480;7.594;2023-02-28T05:13:25;3.78;;;1.90;;
25567;SDS011;13455;51.480;7.594;2023-02-28T05:15:51;4.38;;;2.15;;
25567;SDS011;13455;51.480;7.594;2023-02-28T05:18:17;4.30;;;2.27;;
25567;SDS011;13455;51.480;7.594;2023-02-28T05:20:43;3.90;;;1.90;;
25567;SDS011;13455;51.480;7.594;2023-02-28T05:23:10;4.78;;;2.60;;
25567;SDS011;13455;51.480;7.594;2023-02-28T05:25:37;5.95;;;3.05;;
25567;SDS011;13455;51.480;7.594;2023-02-28T05:28:03;6.43;;;3.30;;
25567;SDS011;13455;51.480;7.594;2023-02-28T05:30:29;5.47;;;3.33;;
25567;SDS011;13455;51.480;7.594;2023-02-28T05:32:56;4.88;;;3.20;;
25567;SDS011;13455;51.480;7.594;2023-02-28T05:35:22;8.50;;;3.10;;
25567;SDS011;13455;51.480;7.594;2023-02-28T05:37:48;8.47;;;4.37;;
25567;SDS011;13455;51.480;7.594;2023-02-28T05:40:14;9.80;;;4.40;;
25567;SDS011;13455;51.480;7.594;2023-02-28T05:42:41;9.95;;;5.25;;
25567;SDS011;13455;51.480;7.594;2023-02-28T05:45:07;9.70;;;5.27;;
25567;SDS011;13455;51.480;7.594;2023-02-28T05:47:33;7.30;;;4.00;;
25567;SDS011;13455;51.480;7.594;2023-02-28T05:49:59;10.18;;;4.40;;
25567;SDS011;13455;51.480;7.594;2023-02-28T05:52:26;9.95;;;4.57;;
25567;SDS011;13455;51.480;7.594;2023-02-28T05:54:52;9.98;;;5.53;;
25567;SDS011;13455;51.480;7.594;2023-02-28T05:57:17;16.60;;;7.37;;
25567;SDS011;13455;51.480;7.594;2023-02-28T05:59:43;15.70;;;6.33;;
25567;SDS011;13455;51.480;7.594;2023-02-28T06:02:12;15.60;;;7.50;;
25567;SDS011;13455;51.480;7.594;2023-02-28T06:04:39;18.20;;;9.37;;
25567;SDS011;13455;51.480;7.594;2023-02-28T06:07:06;19.38;;;9.20;;
25567;SDS011;13455;51.480;7.594;2023-02-28T06:09:32;16.95;;;9.32;;
25567;SDS011;13455;51.480;7.594;2023-02-28T06:11:58;16.77;;;8.93;;
25567;SDS011;13455;51.480;7.594;2023-02-28T06:14:25;14.77;;;7.90;;
25567;SDS011;13455;51.480;7.594;2023-02-28T06:16:51;17.23;;;9.87;;
25567;SDS011;13455;51.480;7.594;2023-02-28T06:19:16;14.52;;;8.73;;
25567;SDS011;13455;51.480;7.594;2023-02-28T06:21:43;11.25;;;6.63;;
25567;SDS011;13455;51.480;7.594;2023-02-28T06:24:09;10.70;;;5.17;;
25567;SDS011;13455;51.480;7.594;2023-02-28T06:26:35;9.18;;;4.82;;
25567;SDS011;13455;51.480;7.594;2023-02-28T06:29:01;10.52;;;4.50;;
25567;SDS011;13455;51.480;7.594;2023-02-28T06:31:28;8.15;;;4.50;;
25567;SDS011;13455;51.480;7.594;2023-02-28T06:33:54;9.63;;;5.80;;
25567;SDS011;13455;51.480;7.594;2023-02-28T06:36:21;11.55;;;5.97;;
25567;SDS011;13455;51.480;7.594;2023-02-28T06:38:47;10.97;;;6.20;;
25567;SDS011;13455;51.480;7.594;2023-02-28T06:41:19;9.93;;;5.60;;
25567;SDS011;13455;51.480;7.594;2023-02-28T06:43:45;9.77;;;4.63;;
25567;SDS011;13455;51.480;7.594;2023-02-28T06:46:12;7.70;;;4.63;;
25567;SDS011;13455;51.480;7.594;2023-02-28T06:48:39;9.83;;;5.40;;
25567;SDS011;13455;51.480;7.594;2023-02-28T06:51:06;11.23;;;5.70;;
25567;SDS011;13455;51.480;7.594;2023-02-28T06:53:32;9.43;;;5.38;;
25567;SDS011;13455;51.480;7.594;2023-02-28T06:55:58;10.48;;;5.25;;
25567;SDS011;13455;51.480;7.594;2023-02-28T06:58:24;12.37;;;5.30;;
25567;SDS011;13455;51.480;7.594;2023-02-28T07:00:51;11.77;;;6.60;;
25567;SDS011;13455;51.480;7.594;2023-02-28T07:03:17;13.02;;;7.10;;
25567;SDS011;13455;51.480;7.594;2023-02-28T07:05:44;14.35;;;7.22;;
25567;SDS011;13455;51.480;7.594;2023-02-28T07:08:10;17.15;;;7.50;;
25567;SDS011;13455;51.480;7.594;2023-02-28T07:10:37;13.20;;;6.90;;
25567;SDS011;13455;51.480;7.594;2023-02-28T07:13:03;13.45;;;7.93;;
25567;SDS011;13455;51.480;7.594;2023-02-28T07:15:29;13.15;;;7.00;;
25567;SDS011;13455;51.480;7.594;2023-02-28T07:17:55;12.45;;;5.72;;
25567;SDS011;13455;51.480;7.594;2023-02-28T07:20:22;7.87;;;4.40;;
25567;SDS011;13455;51.480;7.594;2023-02-28T07:22:48;6.77;;;3.80;;
25567;SDS011;13455;51.480;7.594;2023-02-28T07:25:20;8.27;;;3.88;;
25567;SDS011;13455;51.480;7.594;2023-02-28T07:27:46;9.10;;;3.75;;
25567;SDS011;13455;51.480;7.594;2023-02-28T07:30:12;7.30;;;3.77;;
25567;SDS011;13455;51.480;7.594;2023-02-28T07:32:38;7.22;;;3.00;;
25567;SDS011;13455;51.480;7.594;2023-02-28T07:35:04;6.53;;;3.30;;
25567;SDS011;13455;51.480;7.594;2023-02-28T07:37:30;7.45;;;3.80;;
25567;SDS011;13455;51.480;7.594;2023-02-28T07:40:04;5.43;;;3.22;;
25567;SDS011;13455;51.480;7.594;2023-02-28T07:42:33;6.53;;;2.90;;
25567;SDS011;13455;51.480;7.594;2023-02-28T07:44:59;5.65;;;3.10;;
25567;SDS011;13455;51.480;7.594;2023-02-28T07:47:25;5.80;;;3.10;;
25567;SDS011;13455;51.480;7.594;2023-02-28T07:49:51;6.72;;;3.53;;
25567;SDS011;13455;51.480;7.594;2023-02-28T07:52:16;7.60;;;3.85;;
25567;SDS011;13455;51.480;7.594;2023-02-28T07:54:42;6.20;;;3.55;;
25567;SDS011;13455;51.480;7.594;2023-02-28T07:57:08;6.93;;;3.57;;
25567;SDS011;13455;51.480;7.594;2023-02-28T07:59:33;7.27;;;3.40;;
25567;SDS011;13455;51.480;7.594;2023-02-28T08:01:59;7.43;;;3.50;;
25567;SDS011;13455;51.480;7.594;2023-02-28T08:04:26;8.63;;;4.20;;
25567;SDS011;13455;51.480;7.594;2023-02-28T08:06:52;9.37;;;3.80;;
25567;SDS011;13455;51.480;7.594;2023-02-28T08:09:18;5.72;;;3.35;;
25567;SDS011;13455;51.480;7.594;2023-02-28T08:11:44;8.40;;;4.40;;
25567;SDS011;13455;51.480;7.594;2023-02-28T08:14:09;8.63;;;4.35;;
25567;SDS011;13455;51.480;7.594;2023-02-28T08:16:36;8.17;;;3.90;;
25567;SDS011;13455;51.480;7.594;2023-02-28T08:19:02;6.55;;;3.33;;
25567;SDS011;13455;51.480;7.594;2023-02-28T08:21:27;8.93;;;4.32;;
25567;SDS011;13455;51.480;7.594;2023-02-28T08:23:53;6.15;;;3.03;;
25567;SDS011;13455;51.480;7.594;2023-02-28T08:26:19;4.75;;;2.80;;
25567;SDS011;13455;51.480;7.594;2023-02-28T08:28:45;4.97;;;3.28;;
25567;SDS011;13455;51.480;7.594;2023-02-28T08:31:12;7.33;;;3.40;;
25567;SDS011;13455;51.480;7.594;2023-02-28T08:33:39;6.30;;;3.22;;
25567;SDS011;13455;51.480;7.594;2023-02-28T08:36:06;7.88;;;3.38;;
25567;SDS011;13455;51.480;7.594;2023-02-28T08:38:32;7.55;;;3.55;;
25567;SDS011;13455;51.480;7.594;2023-02-28T08:40:59;6.53;;;3.40;;
25567;SDS011;13455;51.480;7.594;2023-02-28T08:43:27;6.47;;;3.30;;
25567;SDS011;13455;51.480;7.594;2023-02-28T08:45:54;7.15;;;3.17;;
25567;SDS011;13455;51.480;7.594;2023-02-28T08:48:24;5.10;;;3.00;;
25567;SDS011;13455;51.480;7.594;2023-02-28T08:50:57;5.82;;;3.10;;
25567;SDS011;13455;51.480;7.594;2023-02-28T08:53:22;6.55;;;3.10;;
25567;SDS011;13455;51.480;7.594;2023-02-28T08:55:55;7.45;;;2.90;;
25567;SDS011;13455;51.480;7.594;2023-02-28T08:58:21;5.47;;;2.60;;
25567;SDS011;13455;51.480;7.594;2023-02-28T09:00:47;5.57;;;2.78;;
25567;SDS011;13455;51.480;7.594;2023-02-28T09:03:12;5.57;;;2.70;;
25567;SDS011;13455;51.480;7.594;2023-02-28T09:05:38;6.15;;;2.78;;
25567;SDS011;13455;51.480;7.594;2023-02-28T09:08:04;5.03;;;2.70;;
25567;SDS011;13455;51.480;7.594;2023-02-28T09:10:31;5.90;;;2.60;;
25567;SDS011;13455;51.480;7.594;2023-02-28T09:12:57;5.13;;;2.47;;
25567;SDS011;13455;51.480;7.594;2023-02-28T09:15:23;5.77;;;2.80;;
25567;SDS011;13455;51.480;7.594;2023-02-28T09:17:49;5.97;;;2.65;;
25567;SDS011;13455;51.480;7.594;2023-02-28T09:20:14;6.27;;;2.67;;
25567;SDS011;13455;51.480;7.594;2023-02-28T09:22:40;4.97;;;2.50;;
25567;SDS011;13455;51.480;7.594;2023-02-28T09:25:06;5.13;;;2.50;;
25567;SDS011;13455;51.480;7.594;2023-02-28T09:27:32;5.37;;;2.53;;
25567;SDS011;13455;51.480;7.594;2023-02-28T09:29:58;4.95;;;2.60;;
25567;SDS011;13455;51.480;7.594;2023-02-28T09:32:24;4.37;;;2.30;;
25567;SDS011;13455;51.480;7.594;2023-02-28T09:34:50;5.07;;;2.70;;
25567;SDS011;13455;51.480;7.594;2023-02-28T09:37:16;6.53;;;2.80;;
25567;SDS011;13455;51.480;7.594;2023-02-28T09:39:42;5.18;;;2.42;;
25567;SDS011;13455;51.480;7.594;2023-02-28T09:42:11;5.13;;;2.20;;
25567;SDS011;13455;51.480;7.594;2023-02-28T09:44:43;4.30;;;2.40;;
25567;SDS011;13455;51.480;7.594;2023-02-28T09:47:18;5.40;;;2.58;;
25567;SDS011;13455;51.480;7.594;2023-02-28T09:49:58;4.72;;;2.20;;
25567;SDS011;13455;51.480;7.594;2023-02-28T09:52:33;4.90;;;2.60;;
25567;SDS011;13455;51.480;7.594;2023-02-28T09:58:20;5.80;;;2.80;;
25567;SDS011;13455;51.480;7.594;2023-02-28T10:00:57;5.35;;;2.60;;
25567;SDS011;13455;51.480;7.594;2023-02-28T10:03:55;5.95;;;2.53;;
25567;SDS011;13455;51.480;7.594;2023-02-28T10:06:22;4.00;;;2.58;;
25567;SDS011;13455;51.480;7.594;2023-02-28T10:08:53;3.92;;;2.38;;
25567;SDS011;13455;51.480;7.594;2023-02-28T10:11:38;4.07;;;2.25;;
25567;SDS011;13455;51.480;7.594;2023-02-28T10:14:16;5.10;;;2.47;;
25567;SDS011;13455;51.480;7.594;2023-02-28T10:19:20;5.13;;;2.70;;
25567;SDS011;13455;51.480;7.594;2023-02-28T10:21:57;5.45;;;3.15;;
25567;SDS011;13455;51.480;7.594;2023-02-28T10:26:56;5.13;;;2.60;;
25567;SDS011;13455;51.480;7.594;2023-02-28T10:29:23;6.00;;;2.33;;
25567;SDS011;13455;51.480;7.594;2023-02-28T10:31:49;4.28;;;2.45;;
25567;SDS011;13455;51.480;7.594;2023-02-28T10:34:14;4.55;;;2.28;;
25567;SDS011;13455;51.480;7.594;2023-02-28T10:36:41;5.10;;;2.33;;
25567;SDS011;13455;51.480;7.594;2023-02-28T10:41:59;4.43;;;2.22;;
25567;SDS011;13455;51.480;7.594;2023-02-28T10:44:24;4.82;;;2.58;;
25567;SDS011;13455;51.480;7.594;2023-02-28T10:46:50;3.97;;;2.10;;
25567;SDS011;13455;51.480;7.594;2023-02-28T10:49:17;4.13;;;2.22;;
25567;SDS011;13455;51.480;7.594;2023-02-28T10:51:53;5.57;;;2.38;;
25567;SDS011;13455;51.480;7.594;2023-02-28T10:54:24;4.22;;;2.15;;
25567;SDS011;13455;51.480;7.594;2023-02-28T10:57:06;5.37;;;2.33;;
25567;SDS011;13455;51.480;7.594;2023-02-28T10:59:33;5.25;;;2.30;;
25567;SDS011;13455;51.480;7.594;2023-02-28T11:01:59;4.03;;;2.10;;
25567;SDS011;13455;51.480;7.594;2023-02-28T11:07:06;5.95;;;3.10;;
25567;SDS011;13455;51.480;7.594;2023-02-28T11:09:37;7.90;;;3.25;;
25567;SDS011;13455;51.480;7.594;2023-02-28T11:12:05;5.38;;;2.67;;
25567;SDS011;13455;51.480;7.594;2023-02-28T11:14:33;4.15;;;2.22;;
25567;SDS011;13455;51.480;7.594;2023-02-28T11:17:13;4.10;;;2.37;;
25567;SDS011;13455;51.480;7.594;2023-02-28T11:19:44;3.50;;;2.03;;
25567;SDS011;13455;51.480;7.594;2023-02-28T11:22:15;5.10;;;2.30;;
25567;SDS011;13455;51.480;7.594;2023-02-28T11:24:54;7.00;;;2.30;;
25567;SDS011;13455;51.480;7.594;2023-02-28T11:29:59;5.40;;;2.30;;
25567;SDS011;13455;51.480;7.594;2023-02-28T11:32:26;4.75;;;2.30;;
25567;SDS011;13455;51.480;7.594;2023-02-28T11:37:36;4.75;;;2.10;;
25567;SDS011;13455;51.480;7.594;2023-02-28T11:40:13;5.40;;;2.15;;
25567;SDS011;13455;51.480;7.594;2023-02-28T11:43:02;4.85;;;2.47;;
25567;SDS011;13455;51.480;7.594;2023-02-28T11:45:42;5.82;;;2.20;;
25567;SDS011;13455;51.480;7.594;2023-02-28T11:56:23;4.28;;;2.30;;
25567;SDS011;13455;51.480;7.594;2023-02-28T12:05:14;5.15;;;2.47;;
25567;SDS011;13455;51.480;7.594;2023-02-28T12:07:24;4.80;;;2.30;;
25567;SDS011;13455;51.480;7.594;2023-02-28T12:10:01;3.25;;;2.30;;
25567;SDS011;13455;51.480;7.594;2023-02-28T12:15:25;3.00;;;2.25;;
25567;SDS011;13455;51.480;7.594;2023-02-28T12:21:03;6.00;;;2.42;;
25567;SDS011;13455;51.480;7.594;2023-02-28T12:28:53;5.70;;;2.40;;
25567;SDS011;13455;51.480;7.594;2023-02-28T12:31:35;5.13;;;2.70;;
25567;SDS011;13455;51.480;7.594;2023-02-28T12:34:16;4.43;;;2.40;;
25567;SDS011;13455;51.480;7.594;2023-02-28T12:36:48;3.53;;;2.30;;
25567;SDS011;13455;51.480;7.594;2023-02-28T12:39:18;4.67;;;2.60;;
25567;SDS011;13455;51.480;7.594;2023-02-28T12:41:49;4.50;;;2.50;;
25567;SDS011;13455;51.480;7.594;2023-02-28T12:47:03;3.87;;;2.53;;
25567;SDS011;13455;51.480;7.594;2023-02-28T12:49:36;4.05;;;2.40;;
25567;SDS011;13455;51.480;7.594;2023-02-28T12:52:25;4.70;;;2.50;;
25567;SDS011;13455;51.480;7.594;2023-02-28T12:55:04;6.05;;;3.88;;
25567;SDS011;13455;51.480;7.594;2023-02-28T13:00:38;4.45;;;2.45;;
25567;SDS011;13455;51.480;7.594;2023-02-28T13:08:57;5.40;;;3.10;;
25567;SDS011;13455;51.480;7.594;2023-02-28T13:13:58;3.58;;;2.33;;
25567;SDS011;13455;51.480;7.594;2023-02-28T13:16:27;5.05;;;2.40;;
25567;SDS011;13455;51.480;7.594;2023-02-28T13:18:53;3.00;;;2.30;;
25567;SDS011;13455;51.480;7.594;2023-02-28T13:21:41;3.78;;;2.53;;
25567;SDS011;13455;51.480;7.594;2023-02-28T13:24:08;4.05;;;2.42;;
25567;SDS011;13455;51.480;7.594;2023-02-28T13:39:57;4.18;;;2.42;;
25567;SDS011;13455;51.480;7.594;2023-02-28T13:50:44;3.10;;;2.08;;
25567;SDS011;13455;51.480;7.594;2023-02-28T14:06:30;6.47;;;2.40;;
25567;SDS011;13455;51.480;7.594;2023-02-28T14:13:58;3.83;;;2.30;;
25567;SDS011;13455;51.480;7.594;2023-02-28T14:16:25;6.53;;;2.60;;
25567;SDS011;13455;51.480;7.594;2023-02-28T14:19:09;4.13;;;2.58;;
25567;SDS011;13455;51.480;7.594;2023-02-28T14:21:36;3.83;;;2.55;;
25567;SDS011;13455;51.480;7.594;2023-02-28T14:37:38;5.30;;;3.20;;
25567;SDS011;13455;51.480;7.594;2023-02-28T14:40:16;5.63;;;3.00;;
25567;SDS011;13455;51.480;7.594;2023-02-28T14:43:01;5.00;;;2.60;;
25567;SDS011;13455;51.480;7.594;2023-02-28T14:45:29;5.23;;;3.13;;
25567;SDS011;13455;51.480;7.594;2023-02-28T14:47:57;5.72;;;3.30;;
25567;SDS011;13455;51.480;7.594;2023-02-28T14:50:34;4.27;;;3.10;;
25567;SDS011;13455;51.480;7.594;2023-02-28T14:53:01;5.65;;;3.38;;
25567;SDS011;13455;51.480;7.594;2023-02-28T14:55:36;4.63;;;2.95;;
25567;SDS011;13455;51.480;7.594;2023-02-28T14:58:05;4.97;;;3.15;;
25567;SDS011;13455;51.480;7.594;2023-02-28T15:00:47;7.10;;;4.00;;
25567;SDS011;13455;51.480;7.594;2023-02-28T15:03:22;5.28;;;3.30;;
25567;SDS011;13455;51.480;7.594;2023-02-28T15:05:58;5.30;;;3.08;;
25567;SDS011;13455;51.480;7.594;2023-02-28T15:08:25;6.25;;;3.35;;
25567;SDS011;13455;51.480;7.594;2023-02-28T15:10:55;5.20;;;3.38;;
25567;SDS011;13455;51.480;7.594;2023-02-28T15:13:26;6.40;;;3.37;;
25567;SDS011;13455;51.480;7.594;2023-02-28T15:16:03;6.20;;;3.33;;
25567;SDS011;13455;51.480;7.594;2023-02-28T15:18:36;5.93;;;3.25;;
25567;SDS011;13455;51.480;7.594;2023-02-28T15:21:15;6.03;;;3.55;;
25567;SDS011;13455;51.480;7.594;2023-02-28T15:23:46;5.82;;;4.15;;
25567;SDS011;13455;51.480;7.594;2023-02-28T15:26:19;5.70;;;3.27;;
25567;SDS011;13455;51.480;7.594;2023-02-28T15:28:54;5.60;;;3.45;;
25567;SDS011;13455;51.480;7.594;2023-02-28T15:31:34;6.25;;;3.67;;
25567;SDS011;13455;51.480;7.594;2023-02-28T15:34:06;5.13;;;3.35;;
25567;SDS011;13455;51.480;7.594;2023-02-28T15:36:33;5.80;;;3.53;;
25567;SDS011;13455;51.480;7.594;2023-02-28T15:39:02;7.43;;;4.30;;
25567;SDS011;13455;51.480;7.594;2023-02-28T15:41:29;6.43;;;3.60;;
25567;SDS011;13455;51.480;7.594;2023-02-28T15:46:45;5.43;;;3.53;;
25567;SDS011;13455;51.480;7.594;2023-02-28T15:49:20;5.00;;;3.38;;
25567;SDS011;13455;51.480;7.594;2023-02-28T15:51:48;7.25;;;3.50;;
25567;SDS011;13455;51.480;7.594;2023-02-28T15:54:16;4.97;;;3.53;;
25567;SDS011;13455;51.480;7.594;2023-02-28T15:56:46;5.57;;;3.25;;
25567;SDS011;13455;51.480;7.594;2023-02-28T15:59:48;7.22;;;3.42;;
25567;SDS011;13455;51.480;7.594;2023-02-28T16:02:13;5.60;;;3.30;;
25567;SDS011;13455;51.480;7.594;2023-02-28T16:07:24;5.15;;;3.30;;
25567;SDS011;13455;51.480;7.594;2023-02-28T16:09:50;5.80;;;3.40;;
25567;SDS011;13455;51.480;7.594;2023-02-28T16:12:16;5.65;;;3.08;;
25567;SDS011;13455;51.480;7.594;2023-02-28T16:14:43;4.75;;;3.15;;
25567;SDS011;13455;51.480;7.594;2023-02-28T16:17:20;5.33;;;3.63;;
25567;SDS011;13455;51.480;7.594;2023-02-28T16:19:48;8.30;;;3.20;;
25567;SDS011;13455;51.480;7.594;2023-02-28T16:22:14;7.10;;;4.00;;
25567;SDS011;13455;51.480;7.594;2023-02-28T16:24:40;6.15;;;3.95;;
25567;SDS011;13455;51.480;7.594;2023-02-28T16:27:06;6.97;;;3.63;;
25567;SDS011;13455;51.480;7.594;2023-02-28T16:29:35;5.25;;;3.42;;
25567;SDS011;13455;51.480;7.594;2023-02-28T16:32:04;5.95;;;3.45;;
25567;SDS011;13455;51.480;7.594;2023-02-28T16:34:30;5.85;;;3.40;;
25567;SDS011;13455;51.480;7.594;2023-02-28T16:36:57;6.68;;;3.67;;
25567;SDS011;13455;51.480;7.594;2023-02-28T16:39:23;7.10;;;3.40;;
25567;SDS011;13455;51.480;7.594;2023-02-28T16:41:49;4.60;;;3.40;;
25567;SDS011;13455;51.480;7.594;2023-02-28T16:44:23;4.75;;;3.30;;
25567;SDS011;13455;51.480;7.594;2023-02-28T16:46:51;6.60;;;3.70;;
25567;SDS011;13455;51.480;7.594;2023-02-28T16:49:16;6.03;;;3.40;;
25567;SDS011;13455;51.480;7.594;2023-02-28T16:51:42;5.23;;;3.50;;
25567;SDS011;13455;51.480;7.594;2023-02-28T16:54:07;6.00;;;3.80;;
25567;SDS011;13455;51.480;7.594;2023-02-28T16:56:33;7.93;;;3.50;;
25567;SDS011;13455;51.480;7.594;2023-02-28T16:59:00;5.93;;;3.63;;
25567;SDS011;13455;51.480;7.594;2023-02-28T17:01:27;5.72;;;3.65;;
25567;SDS011;13455;51.480;7.594;2023-02-28T17:03:54;8.25;;;4.93;;
25567;SDS011;13455;51.480;7.594;2023-02-28T17:06:24;9.93;;;5.93;;
25567;SDS011;13455;51.480;7.594;2023-02-28T17:08:51;7.93;;;4.20;;
25567;SDS011;13455;51.480;7.594;2023-02-28T17:11:17;8.75;;;5.70;;
25567;SDS011;13455;51.480;7.594;2023-02-28T17:13:43;8.27;;;4.35;;
25567;SDS011;13455;51.480;7.594;2023-02-28T17:16:29;9.07;;;5.10;;
25567;SDS011;13455;51.480;7.594;2023-02-28T17:18:58;6.88;;;4.13;;
25567;SDS011;13455;51.480;7.594;2023-02-28T17:21:24;8.40;;;5.10;;
25567;SDS011;13455;51.480;7.594;2023-02-28T17:23:50;7.10;;;4.30;;
25567;SDS011;13455;51.480;7.594;2023-02-28T17:26:16;6.55;;;4.13;;
25567;SDS011;13455;51.480;7.594;2023-02-28T17:28:45;7.43;;;4.53;;
25567;SDS011;13455;51.480;7.594;2023-02-28T17:31:11;7.38;;;4.25;;
25567;SDS011;13455;51.480;7.594;2023-02-28T17:33:37;8.70;;;4.70;;
25567;SDS011;13455;51.480;7.594;2023-02-28T17:36:03;7.45;;;4.43;;